createdAt,value
2022-12-06T00:01:30.684Z,22.00
2022-12-06T00:04:01.133Z,20.50
2022-12-06T00:06:32.888Z,23.00
2022-12-06T00:09:00.576Z,24.50
2022-12-06T00:11:44.957Z,25.00
2022-12-06T00:14:15.702Z,22.00
2022-12-06T00:16:42.614Z,23.00
2022-12-06T00:19:12.857Z,20.00
2022-12-06T00:21:41.221Z,22.75
2022-12-06T00:24:11.480Z,23.25
2022-12-06T00:26:41.863Z,24.75
2022-12-06T00:29:13.387Z,22.75
2022-12-06T00:31:40.773Z,22.00
2022-12-06T00:34:08.059Z,23.25
2022-12-06T00:36:39.371Z,23.25
2022-12-06T00:39:11.343Z,22.75
2022-12-06T00:41:39.024Z,23.00
2022-12-06T00:44:06.761Z,22.75
2022-12-06T00:46:35.457Z,22.75
2022-12-06T00:49:05.701Z,22.75
2022-12-06T00:51:34.685Z,22.00
2022-12-06T00:54:01.898Z,22.75
2022-12-06T00:56:30.815Z,20.00
2022-12-06T00:58:58.013Z,22.50
2022-12-06T01:01:27.535Z,22.00
2022-12-06T01:03:58.189Z,20.00
2022-12-06T01:06:29.225Z,21.75
2022-12-06T01:08:59.216Z,22.75
2022-12-06T01:11:27.858Z,21.75
2022-12-06T01:13:56.826Z,22.50
2022-12-06T01:16:28.190Z,22.25
2022-12-06T01:18:58.412Z,21.75
2022-12-06T01:21:27.259Z,22.00
2022-12-06T01:23:54.352Z,22.00
2022-12-06T01:26:24.909Z,20.75
2022-12-06T01:28:52.207Z,22.25
2022-12-06T01:31:21.252Z,19.25
2022-12-06T01:33:48.433Z,21.75
2022-12-06T01:36:20.340Z,17.75
2022-12-06T01:38:50.768Z,21.75
2022-12-06T01:41:18.438Z,20.75
2022-12-06T01:43:47.076Z,22.00
2022-12-06T01:46:28.357Z,27.67
2022-12-06T01:49:08.229Z,23.50
2022-12-06T01:51:36.584Z,24.00
2022-12-06T01:54:10.296Z,22.25
2022-12-06T01:56:38.863Z,20.00
2022-12-06T01:59:08.020Z,22.50
2022-12-06T02:01:39.179Z,22.00
2022-12-06T02:04:07.387Z,0.00
2022-12-06T02:06:34.652Z,23.75
2022-12-06T02:09:06.061Z,21.00
2022-12-06T02:11:35.704Z,22.00
2022-12-06T02:14:09.532Z,20.00
2022-12-06T02:17:04.810Z,22.00
2022-12-06T02:20:18.908Z,18.00
2022-12-06T02:23:35.137Z,21.25
2022-12-06T02:26:37.662Z,20.25
2022-12-06T02:29:46.104Z,20.75
2022-12-06T02:32:24.112Z,23.00
2022-12-06T02:34:59.469Z,23.00
2022-12-06T02:37:34.264Z,22.25
2022-12-06T02:40:07.943Z,23.50
2022-12-06T02:42:44.493Z,22.00
2022-12-06T02:45:19.034Z,22.00
2022-12-06T02:47:51.902Z,21.25
2022-12-06T02:50:25.196Z,20.50
2022-12-06T02:52:58.289Z,20.25
2022-12-06T02:55:26.602Z,19.75
2022-12-06T02:57:54.758Z,20.00
2022-12-06T03:00:37.164Z,19.75
2022-12-06T03:03:53.151Z,19.00
2022-12-06T03:06:51.146Z,17.00
2022-12-06T03:09:36.492Z,20.00
2022-12-06T03:12:12.254Z,20.00
2022-12-06T03:14:51.022Z,1.25
2022-12-06T03:17:34.730Z,17.75
2022-12-06T03:20:11.960Z,15.75
2022-12-06T03:22:46.405Z,17.50
2022-12-06T03:25:14.866Z,17.00
2022-12-06T03:27:44.964Z,18.00
2022-12-06T03:30:15.899Z,16.00
2022-12-06T03:32:48.858Z,17.00
2022-12-06T03:35:25.724Z,14.00
2022-12-06T03:38:04.587Z,15.00
2022-12-06T03:40:36.948Z,13.75
2022-12-06T03:43:05.243Z,13.00
2022-12-06T03:45:40.332Z,12.25
2022-12-06T03:48:12.772Z,12.25
2022-12-06T03:50:47.593Z,13.50
2022-12-06T03:53:17.420Z,7.25
2022-12-06T03:55:44.462Z,12.25
2022-12-06T03:58:11.757Z,13.50
2022-12-06T04:00:39.049Z,12.00
2022-12-06T04:03:05.973Z,11.50
2022-12-06T04:05:32.917Z,11.00
2022-12-06T04:08:01.111Z,12.75
2022-12-06T04:10:28.130Z,13.75
2022-12-06T04:12:54.918Z,13.75
2022-12-06T04:15:23.254Z,11.75
2022-12-06T04:17:50.239Z,13.25
2022-12-06T04:20:17.433Z,14.50
2022-12-06T04:22:44.180Z,12.00
2022-12-06T04:25:12.251Z,13.25
2022-12-06T04:27:39.421Z,14.25
2022-12-06T04:30:09.275Z,13.50
2022-12-06T04:32:36.027Z,13.25
2022-12-06T04:35:02.958Z,12.50
2022-12-06T04:37:30.068Z,12.75
2022-12-06T04:39:56.793Z,13.25
2022-12-06T04:42:25.203Z,15.25
2022-12-06T04:44:52.032Z,13.75
2022-12-06T04:47:19.502Z,14.00
2022-12-06T04:49:46.545Z,15.25
2022-12-06T04:52:14.259Z,13.50
2022-12-06T04:54:42.005Z,12.75
2022-12-06T04:57:11.992Z,14.00
2022-12-06T04:59:43.138Z,12.00
2022-12-06T05:02:14.755Z,14.00
2022-12-06T05:04:42.032Z,13.00
2022-12-06T05:07:09.656Z,14.50
2022-12-06T05:09:36.652Z,13.25
2022-12-06T05:12:03.805Z,17.00
2022-12-06T05:14:30.913Z,14.50
2022-12-06T05:16:59.983Z,24.33
2022-12-06T05:19:27.005Z,27.67
2022-12-06T05:21:53.959Z,24.50
2022-12-06T05:24:20.825Z,19.50
2022-12-06T05:26:47.565Z,15.00
2022-12-06T05:29:14.548Z,15.25
2022-12-06T05:31:41.490Z,12.25
2022-12-06T05:34:10.791Z,16.25
2022-12-06T05:36:37.768Z,18.25
2022-12-06T05:39:04.549Z,15.00
2022-12-06T05:41:31.849Z,16.50
2022-12-06T05:43:58.581Z,16.00
2022-12-06T05:46:25.508Z,16.00
2022-12-06T05:48:52.337Z,16.50
2022-12-06T05:51:20.500Z,18.50
2022-12-06T05:53:47.236Z,19.00
2022-12-06T05:56:14.085Z,18.00
2022-12-06T05:58:41.057Z,15.00
2022-12-06T06:01:09.798Z,26.25
2022-12-06T06:03:42.232Z,17.00
2022-12-06T06:06:12.486Z,16.50
2022-12-06T06:08:40.747Z,16.50
2022-12-06T06:11:07.817Z,17.75
2022-12-06T06:13:34.741Z,16.25
2022-12-06T06:16:01.537Z,15.75
2022-12-06T06:18:28.710Z,14.00
2022-12-06T06:20:59.136Z,14.25
2022-12-06T06:23:29.589Z,19.25
2022-12-06T06:25:57.740Z,17.50
2022-12-06T06:28:24.661Z,14.00
2022-12-06T06:30:51.611Z,18.00
2022-12-06T06:33:18.775Z,18.50
2022-12-06T06:35:45.480Z,17.50
2022-12-06T06:38:12.377Z,17.00
2022-12-06T06:40:39.175Z,19.00
2022-12-06T06:43:07.289Z,14.25
2022-12-06T06:45:34.695Z,19.75
2022-12-06T06:48:01.488Z,11.75
2022-12-06T06:50:28.516Z,16.50
2022-12-06T06:52:55.261Z,17.50
2022-12-06T06:55:22.061Z,16.00
2022-12-06T06:57:48.902Z,19.50
2022-12-06T07:00:19.115Z,16.00
2022-12-06T07:02:46.122Z,20.00
2022-12-06T07:05:13.280Z,19.25
2022-12-06T07:07:40.168Z,17.50
2022-12-06T07:10:08.583Z,18.00
2022-12-06T07:12:35.605Z,18.25
2022-12-06T07:15:02.382Z,15.25
2022-12-06T07:17:31.109Z,19.00
2022-12-06T07:19:58.460Z,18.00
2022-12-06T07:22:25.565Z,17.75
2022-12-06T07:24:52.653Z,16.50
2022-12-06T07:27:19.555Z,17.75
2022-12-06T07:29:46.321Z,17.50
2022-12-06T07:32:13.067Z,16.50
2022-12-06T07:34:41.485Z,19.75
2022-12-06T07:37:08.263Z,19.00
2022-12-06T07:39:35.256Z,15.75
2022-12-06T07:42:02.317Z,18.50
2022-12-06T07:44:41.259Z,16.50
2022-12-06T07:47:08.330Z,16.75
2022-12-06T07:49:35.138Z,16.00
2022-12-06T07:52:03.679Z,18.25
2022-12-06T07:54:30.401Z,15.75
2022-12-06T07:56:57.191Z,17.00
2022-12-06T07:59:25.184Z,17.50
2022-12-06T08:01:53.181Z,14.50
2022-12-06T08:04:21.176Z,15.00
2022-12-06T08:06:48.064Z,19.75
2022-12-06T08:09:16.189Z,21.75
2022-12-06T08:11:43.010Z,20.00
2022-12-06T08:14:10.811Z,18.50
2022-12-06T08:16:37.686Z,19.25
2022-12-06T08:19:04.504Z,13.50
2022-12-06T08:21:31.528Z,12.75
2022-12-06T08:23:58.553Z,13.00
2022-12-06T08:26:26.762Z,14.00
2022-12-06T08:28:53.753Z,13.25
2022-12-06T08:31:23.455Z,12.00
2022-12-06T08:33:51.593Z,13.00
2022-12-06T08:36:24.078Z,15.25
2022-12-06T08:38:52.735Z,13.00
2022-12-06T08:41:20.600Z,13.25
2022-12-06T08:43:48.783Z,13.00
2022-12-06T08:46:17.945Z,11.50
2022-12-06T08:48:44.756Z,8.25
2022-12-06T08:51:11.546Z,14.75
2022-12-06T08:53:38.365Z,16.25
2022-12-06T08:56:05.973Z,15.25
2022-12-06T08:58:32.747Z,16.00
2022-12-06T09:01:01.326Z,15.75
2022-12-06T09:03:29.082Z,13.25
2022-12-06T09:05:55.892Z,16.00
2022-12-06T09:08:22.748Z,13.75
2022-12-06T09:10:49.543Z,14.50
2022-12-06T09:13:16.305Z,10.25
2022-12-06T09:15:43.212Z,10.00
2022-12-06T09:18:11.422Z,7.50
2022-12-06T09:20:39.856Z,10.00
2022-12-06T09:23:06.941Z,4.75
2022-12-06T09:25:33.900Z,11.00
2022-12-06T09:28:00.766Z,6.00
2022-12-06T09:30:28.661Z,6.25
2022-12-06T09:32:55.646Z,7.00
2022-12-06T09:35:25.336Z,6.00
2022-12-06T09:37:53.242Z,1.00
2022-12-06T09:40:32.097Z,7.00
2022-12-06T09:43:22.825Z,6.50
2022-12-06T09:46:24.455Z,3.00
2022-12-06T09:49:28.422Z,6.75
2022-12-06T09:52:19.172Z,10.00
2022-12-06T09:55:05.766Z,6.00
2022-12-06T09:57:44.649Z,5.50
2022-12-06T10:00:26.200Z,5.75
2022-12-06T10:03:26.237Z,5.50
2022-12-06T10:06:00.184Z,6.00
2022-12-06T10:08:51.798Z,6.50
2022-12-06T10:11:41.790Z,5.00
2022-12-06T10:14:28.410Z,4.00
2022-12-06T10:17:08.715Z,3.25
2022-12-06T10:19:57.917Z,6.00
2022-12-06T10:22:41.006Z,3.00
2022-12-06T10:25:18.893Z,8.50
2022-12-06T10:27:58.874Z,8.00
2022-12-06T10:30:26.133Z,8.50
2022-12-06T10:33:00.425Z,5.00
2022-12-06T10:35:54.445Z,4.25
2022-12-06T10:38:32.510Z,6.00
2022-12-06T10:41:12.746Z,9.00
2022-12-06T10:43:54.113Z,7.00
2022-12-06T10:46:31.009Z,6.00
2022-12-06T10:49:08.944Z,7.75
2022-12-06T10:51:43.509Z,6.75
2022-12-06T10:54:25.950Z,11.00
2022-12-06T10:57:00.288Z,11.25
2022-12-06T10:59:37.173Z,11.00
2022-12-06T11:02:24.861Z,10.00
2022-12-06T11:05:00.203Z,11.25
2022-12-06T11:07:37.485Z,10.25
2022-12-06T11:10:19.218Z,10.50
2022-12-06T11:12:54.614Z,8.00
2022-12-06T11:15:26.512Z,10.00
2022-12-06T11:18:04.029Z,11.00
2022-12-06T11:20:39.769Z,9.00
2022-12-06T11:23:19.300Z,12.25
2022-12-06T11:26:12.536Z,8.75
2022-12-06T11:28:43.893Z,8.75
2022-12-06T11:31:25.562Z,7.75
2022-12-06T11:33:53.310Z,7.25
2022-12-06T11:36:21.341Z,6.75
2022-12-06T11:38:48.478Z,7.00
2022-12-06T11:41:23.897Z,7.25
2022-12-06T11:43:55.130Z,7.00
2022-12-06T11:46:24.574Z,7.25
2022-12-06T11:48:52.213Z,12.50
2022-12-06T11:51:22.981Z,10.00
2022-12-06T11:54:00.861Z,10.50
2022-12-06T11:56:31.505Z,9.00
2022-12-06T11:59:21.455Z,11.00
2022-12-06T12:01:51.831Z,11.75
2022-12-06T12:04:39.833Z,15.75
2022-12-06T12:07:16.547Z,18.75
2022-12-06T12:09:52.254Z,19.25
2022-12-06T12:12:23.045Z,16.75
2022-12-06T12:14:58.077Z,14.00
2022-12-06T12:17:31.231Z,13.75
2022-12-06T12:20:04.608Z,14.50
2022-12-06T12:22:37.830Z,15.00
2022-12-06T12:25:24.890Z,15.75
2022-12-06T12:27:54.600Z,17.25
2022-12-06T12:30:32.918Z,12.50
2022-12-06T12:33:21.971Z,9.75
2022-12-06T12:35:54.008Z,9.75
2022-12-06T12:38:28.308Z,3.00
2022-12-06T12:41:00.014Z,14.00
2022-12-06T12:43:31.805Z,13.25
2022-12-06T12:46:15.230Z,17.75
2022-12-06T12:48:46.169Z,16.75
2022-12-06T12:51:32.592Z,13.00
2022-12-06T12:54:03.407Z,14.50
2022-12-06T12:56:35.360Z,12.50
2022-12-06T12:59:16.345Z,13.50
2022-12-06T13:01:51.687Z,11.25
2022-12-06T13:04:33.341Z,10.50
2022-12-06T13:07:05.855Z,14.75
2022-12-06T13:09:46.515Z,14.50
2022-12-06T13:12:23.217Z,15.50
2022-12-06T13:14:58.307Z,13.25
2022-12-06T13:17:31.815Z,12.00
2022-12-06T13:19:58.933Z,12.50
2022-12-06T13:22:30.952Z,16.25
2022-12-06T13:25:07.626Z,16.25
2022-12-06T13:27:42.434Z,14.00
2022-12-06T13:30:18.025Z,14.75
2022-12-06T13:32:53.276Z,13.25
2022-12-06T13:35:28.235Z,18.00
2022-12-06T13:37:58.057Z,19.75
2022-12-06T13:40:49.491Z,19.75
2022-12-06T13:43:56.371Z,21.25
2022-12-06T13:46:31.383Z,20.25
2022-12-06T13:49:03.592Z,20.00
2022-12-06T13:51:46.862Z,20.25
2022-12-06T13:54:40.992Z,10.25
2022-12-06T13:57:30.129Z,11.50
2022-12-06T13:59:57.041Z,10.75
2022-12-06T14:02:51.281Z,13.75
2022-12-06T14:06:07.352Z,13.00
2022-12-06T14:08:42.769Z,12.00
2022-12-06T14:11:18.726Z,14.25
2022-12-06T14:13:48.650Z,15.00
2022-12-06T14:16:29.197Z,18.75
2022-12-06T14:18:56.463Z,15.00
2022-12-06T14:21:30.454Z,14.75
2022-12-06T14:23:57.791Z,17.00
2022-12-06T14:26:28.326Z,21.00
2022-12-06T14:28:58.372Z,21.75
2022-12-06T14:31:30.426Z,22.50
2022-12-06T14:33:57.622Z,21.25
2022-12-06T14:36:29.506Z,21.25
2022-12-06T14:39:06.192Z,22.00
2022-12-06T14:41:37.726Z,22.75
2022-12-06T14:44:14.014Z,20.50
2022-12-06T14:46:42.393Z,18.00
2022-12-06T14:49:18.475Z,15.50
2022-12-06T14:51:46.782Z,20.75
2022-12-06T14:54:19.552Z,21.00
2022-12-06T14:56:47.019Z,23.25
2022-12-06T14:59:38.970Z,20.25
2022-12-06T15:02:23.620Z,19.25
2022-12-06T15:04:51.213Z,20.00
2022-12-06T15:07:41.991Z,21.25
2022-12-06T15:10:24.579Z,22.25
2022-12-06T15:12:52.971Z,22.25
2022-12-06T15:15:39.901Z,21.75
2022-12-06T15:18:23.846Z,22.75
2022-12-06T15:20:52.016Z,22.75
2022-12-06T15:23:36.130Z,21.25
2022-12-06T15:26:06.407Z,22.75
2022-12-06T15:28:34.092Z,24.00
2022-12-06T15:31:01.738Z,22.50
2022-12-06T15:33:29.059Z,21.50
2022-12-06T15:35:55.862Z,18.75
2022-12-06T15:38:22.662Z,12.75
2022-12-06T15:40:53.530Z,16.75
2022-12-06T15:43:29.061Z,17.25
2022-12-06T15:45:58.148Z,19.50
2022-12-06T15:48:25.067Z,15.25
2022-12-06T15:50:51.884Z,11.50
2022-12-06T15:53:22.424Z,9.75
2022-12-06T15:55:52.409Z,14.00
2022-12-06T15:58:23.205Z,16.00
2022-12-06T16:00:50.387Z,17.25
2022-12-06T16:03:17.514Z,20.00
2022-12-06T16:05:44.698Z,22.75
2022-12-06T16:08:11.594Z,20.75
2022-12-06T16:11:10.318Z,21.50
2022-12-06T16:13:27.189Z,23.00
2022-12-06T16:15:54.031Z,20.75
2022-12-06T16:18:20.861Z,20.00
2022-12-06T16:20:48.935Z,20.00
2022-12-06T16:23:18.693Z,21.00
2022-12-06T16:25:46.777Z,20.75
2022-12-06T16:28:14.989Z,19.50
2022-12-06T16:30:44.091Z,19.50
2022-12-06T16:33:17.614Z,19.25
2022-12-06T16:35:45.477Z,18.75
2022-12-06T16:38:14.108Z,21.75
2022-12-06T16:40:45.670Z,21.25
2022-12-06T16:43:13.068Z,20.00
2022-12-06T16:45:44.394Z,20.25
2022-12-06T16:48:16.480Z,22.75
2022-12-06T16:50:45.841Z,23.75
2022-12-06T16:53:13.206Z,21.75
2022-12-06T16:55:40.086Z,24.00
2022-12-06T16:58:07.326Z,19.00
2022-12-06T17:00:34.507Z,23.00
2022-12-06T17:03:02.770Z,19.50
2022-12-06T17:05:29.704Z,20.25
2022-12-06T17:07:56.940Z,20.00
2022-12-06T17:10:23.929Z,22.25
2022-12-06T17:12:50.784Z,27.25
2022-12-06T17:15:20.489Z,29.25
2022-12-06T17:17:48.339Z,34.00
2022-12-06T17:20:18.379Z,23.00
2022-12-06T17:22:45.829Z,25.50
2022-12-06T17:25:14.113Z,23.50
2022-12-06T17:27:41.000Z,26.50
2022-12-06T17:30:14.614Z,6.00
2022-12-06T17:32:41.998Z,20.75
2022-12-06T17:35:08.999Z,23.75
2022-12-06T17:37:37.275Z,21.25
2022-12-06T17:40:05.085Z,23.50
2022-12-06T17:42:32.127Z,23.75
2022-12-06T17:44:58.974Z,20.00
2022-12-06T17:47:26.613Z,21.75
2022-12-06T17:49:53.410Z,23.25
2022-12-06T17:52:20.420Z,28.75
2022-12-06T17:54:48.634Z,27.00
2022-12-06T17:57:17.361Z,24.25
2022-12-06T17:59:46.086Z,22.50
2022-12-06T18:02:16.052Z,18.75
2022-12-06T18:04:43.872Z,17.25
2022-12-06T18:07:11.079Z,17.00
2022-12-06T18:09:38.166Z,22.00
2022-12-06T18:12:08.128Z,24.50
2022-12-06T18:14:35.417Z,24.00
2022-12-06T18:17:02.245Z,23.25
2022-12-06T18:19:29.264Z,23.25
2022-12-06T18:21:56.163Z,22.00
2022-12-06T18:24:25.727Z,23.50
2022-12-06T18:26:54.634Z,22.00
2022-12-06T18:29:24.223Z,24.00
2022-12-06T18:31:52.421Z,25.50
2022-12-06T18:34:20.432Z,24.50
2022-12-06T18:36:47.717Z,23.25
2022-12-06T18:39:18.231Z,23.25
2022-12-06T18:41:46.426Z,23.75
2022-12-06T18:44:13.697Z,20.00
2022-12-06T18:46:42.296Z,19.00
2022-12-06T18:49:12.168Z,18.75
2022-12-06T18:51:39.171Z,16.75
2022-12-06T18:54:07.290Z,16.00
2022-12-06T18:56:35.658Z,14.25
2022-12-06T18:59:06.326Z,16.25
2022-12-06T19:01:36.622Z,22.50
2022-12-06T19:04:07.542Z,27.25
2022-12-06T19:06:37.967Z,27.67
2022-12-06T19:09:08.734Z,24.50
2022-12-06T19:11:36.864Z,23.00
2022-12-06T19:14:04.834Z,25.50
2022-12-06T19:16:36.514Z,18.25
2022-12-06T19:19:14.270Z,13.00
2022-12-06T19:21:43.578Z,14.00
2022-12-06T19:24:12.508Z,14.00
2022-12-06T19:26:39.547Z,12.00
2022-12-06T19:29:06.279Z,23.25
2022-12-06T19:31:33.194Z,16.00
2022-12-06T19:34:00.334Z,15.25
2022-12-06T19:36:31.053Z,14.75
2022-12-06T19:39:00.779Z,17.25
2022-12-06T19:41:28.631Z,15.50
2022-12-06T19:43:55.849Z,15.25
2022-12-06T19:46:26.263Z,17.25
2022-12-06T19:48:55.866Z,16.00
2022-12-06T19:51:23.332Z,18.00
2022-12-06T19:53:51.892Z,15.75
2022-12-06T19:56:18.690Z,18.50
2022-12-06T19:58:46.892Z,15.00
2022-12-06T20:01:17.664Z,18.50
2022-12-06T20:03:44.653Z,17.25
2022-12-06T20:06:18.202Z,19.00
2022-12-06T20:08:47.136Z,21.25
2022-12-06T20:11:18.060Z,23.75
2022-12-06T20:13:44.858Z,23.50
2022-12-06T20:16:12.013Z,21.00
2022-12-06T20:18:38.815Z,22.00
2022-12-06T20:21:06.098Z,21.75
2022-12-06T20:23:32.812Z,19.50
2022-12-06T20:25:59.865Z,20.00
2022-12-06T20:28:28.045Z,22.25
2022-12-06T20:30:55.291Z,21.00
2022-12-06T20:33:22.218Z,20.25
2022-12-06T20:35:49.214Z,15.75
2022-12-06T20:38:15.968Z,13.25
2022-12-06T20:40:42.825Z,19.00
2022-12-06T20:43:10.256Z,20.00
2022-12-06T20:45:38.399Z,19.50
2022-12-06T20:48:05.558Z,18.75
2022-12-06T20:50:32.597Z,18.00
2022-12-06T20:52:59.373Z,17.75
2022-12-06T20:55:26.187Z,18.00
2022-12-06T20:57:53.235Z,17.25
2022-12-06T21:00:21.639Z,20.75
2022-12-06T21:02:50.096Z,18.75
2022-12-06T21:05:18.899Z,21.00
2022-12-06T21:07:46.073Z,20.75
2022-12-06T21:10:12.903Z,21.00
2022-12-06T21:12:39.640Z,22.75
2022-12-06T21:15:07.788Z,26.25
2022-12-06T21:17:34.741Z,23.50
2022-12-06T21:20:03.373Z,26.25
2022-12-06T21:22:30.736Z,25.00
2022-12-06T21:24:57.463Z,29.00
2022-12-06T21:27:24.652Z,26.00
2022-12-06T21:29:51.392Z,25.75
2022-12-06T21:32:18.453Z,20.00
2022-12-06T21:34:46.687Z,22.00
2022-12-06T21:37:15.250Z,22.50
2022-12-06T21:39:42.045Z,20.50
2022-12-06T21:42:08.813Z,22.00
2022-12-06T21:44:36.304Z,16.00
2022-12-06T21:47:03.284Z,15.75
2022-12-06T21:49:29.987Z,19.25
2022-12-06T21:52:01.252Z,16.50
2022-12-06T21:54:34.120Z,16.75
2022-12-06T21:57:00.879Z,15.50
2022-12-06T21:59:27.989Z,17.50
2022-12-06T22:01:54.938Z,17.50
2022-12-06T22:04:22.057Z,13.75
2022-12-06T22:06:48.802Z,18.00
2022-12-06T22:09:15.661Z,17.25
2022-12-06T22:11:44.148Z,19.25
2022-12-06T22:14:11.387Z,11.50
2022-12-06T22:16:41.310Z,17.25
2022-12-06T22:19:08.221Z,18.25
2022-12-06T22:21:35.820Z,21.25
2022-12-06T22:24:02.656Z,24.25
2022-12-06T22:26:31.045Z,23.50
2022-12-06T22:29:00.092Z,27.00
2022-12-06T22:31:29.866Z,24.75
2022-12-06T22:33:57.911Z,21.50
2022-12-06T22:36:25.548Z,13.50
2022-12-06T22:38:54.627Z,8.75
2022-12-06T22:41:22.717Z,6.75
2022-12-06T22:43:51.903Z,7.25
2022-12-06T22:46:22.133Z,7.00
2022-12-06T22:48:49.845Z,8.75
2022-12-06T22:51:19.974Z,11.00
2022-12-06T22:53:51.845Z,9.00
2022-12-06T22:56:19.121Z,10.00
2022-12-06T22:58:45.999Z,9.50
2022-12-06T23:01:17.067Z,8.00
2022-12-06T23:03:47.980Z,8.00
2022-12-06T23:06:17.410Z,6.00
2022-12-06T23:08:45.159Z,7.25
2022-12-06T23:11:16.563Z,8.25
2022-12-06T23:13:43.538Z,9.00
2022-12-06T23:16:14.640Z,13.75
2022-12-06T23:18:42.562Z,15.00
2022-12-06T23:21:14.060Z,11.25
2022-12-06T23:23:44.592Z,9.75
2022-12-06T23:26:14.190Z,8.50
2022-12-06T23:28:41.637Z,7.50
2022-12-06T23:31:13.550Z,8.75
2022-12-06T23:33:41.427Z,7.75
2022-12-06T23:36:13.210Z,8.25
2022-12-06T23:38:40.521Z,9.00
2022-12-06T23:41:11.121Z,7.00
2022-12-06T23:43:39.350Z,8.75
2022-12-06T23:46:08.663Z,8.50
2022-12-06T23:48:36.396Z,10.25
2022-12-06T23:51:07.044Z,9.25
2022-12-06T23:53:35.971Z,9.00
2022-12-06T23:56:07.009Z,10.00
2022-12-06T23:58:34.297Z,9.00
